Other Surface Observations
Issued by NWS

Home | Current Version | Previous Version | Text Only | Print | Product List | Glossary On
Versions: 1 2 3 4 5 6 7 8 9 10 11 12 13 14 15 16 17 18 19 20 21 22 23 24 25 26 27 28 29 30 31 32 33 34 35 36 37 38 39 40 41 42 43 44 45 46 47 48 49 50
000
SXUS51 KWBC 170539
OSONT
:SHEF ENCODED 6-MINUTE NOS MET DATA
:NATIONAL WATER LEVEL OBSERVATION NETWORK (NWLON)
:TA(AIR TEMP DEG F)  SLP(SEA LEVEL PRESSURE INCHES)
:UD(WIND DIRECTION WHOLE DEGREES) US (WIND SPEED MPH)
:TW(WATER TEMP DEG F) UG(WIND GUSTS MPH) WC(CONDUCTIVITY uMHOS/CM)
:-9999 (MISSING VALUES)
:PROVIDED BY DOC/NOAA/NOS/CO-OPS, (301) 713-2540
:corms@noaa.gov
.E FRCB6 20190217 Z DH0454/TAIRG/DIN06/   68/   68/   68/   68/-9999/   68
.E FRCB6 20190217 Z DH0454/PLIRG/DIN06/29.91/29.91/29.91/29.91/-9999/29.90
.E FRCB6 20190217 Z DH0454/TWIRG/DIN06/   67/   67/   67/   67/-9999/   67
.E BEPB6 20190217 Z DH0512/TAIRG/DIN06/   67/-9999/   67
.E BEPB6 20190217 Z DH0512/PLIRG/DIN06/29.91/-9999/29.90
.E BEPB6 20190217 Z DH0512/USIRG/DIN06/   13/-9999/   10
.E BEPB6 20190217 Z DH0512/UDIRG/DIN06/  251/-9999/  243
.E BEPB6 20190217 Z DH0512/UGIRG/DIN06/   16/-9999/   14
.E BEPB6 20190217 Z DH0512/TWIRG/DIN06/   67/-9999/   67
.E PSBM1 20190217 Z DH0512/TAIRG/DIN06/   23/   23/   23
.E PSBM1 20190217 Z DH0512/PLIRG/DIN06/29.88/29.88/29.88
.E PSBM1 20190217 Z DH0512/USIRG/DIN06/    7/   13/   10
.E PSBM1 20190217 Z DH0512/UDIRG/DIN06/  292/  299/  307
.E PSBM1 20190217 Z DH0512/UGIRG/DIN06/   15/   20/   15
.E PSBM1 20190217 Z DH0512/TWIRG/DIN06/   36/   36/   36
.E CFWM1 20190217 Z DH0518/TAIRG/DIN06/   22/   22
.E CFWM1 20190217 Z DH0518/PLIRG/DIN06/29.85/29.85
.E CFWM1 20190217 Z DH0518/USIRG/DIN06/    7/    7
.E CFWM1 20190217 Z DH0518/UDIRG/DIN06/  316/  316
.E CFWM1 20190217 Z DH0518/UGIRG/DIN06/   10/   13
.E CFWM1 20190217 Z DH0518/TWIRG/DIN06/   36/   36
.E ATGM1 20190217 Z DH0518/TAIRG/DIN06/   24/   23
.E ATGM1 20190217 Z DH0518/PLIRG/DIN06/29.90/29.90
.E ATGM1 20190217 Z DH0518/USIRG/DIN06/   15/   18
.E ATGM1 20190217 Z DH0518/UDIRG/DIN06/  346/  352
.E ATGM1 20190217 Z DH0518/UGIRG/DIN06/   19/   23
.E ATGM1 20190217 Z DH0518/TWIRG/DIN06/   33/   33
.E CASM1 20190217 Z DH0512/TAIRG/DIN06/   23/   23/   23
.E CASM1 20190217 Z DH0512/TWIRG/DIN06/   35/   35/   35
.E WELM1 20190217 Z DH0518/TAIRG/DIN06/   25/   24
.E WELM1 20190217 Z DH0518/PLIRG/DIN06/29.98/29.98
.E WELM1 20190217 Z DH0518/USIRG/DIN06/   10/    8
.E WELM1 20190217 Z DH0518/UDIRG/DIN06/  325/  322
.E WELM1 20190217 Z DH0518/UGIRG/DIN06/   13/   13
.E WELM1 20190217 Z DH0518/TWIRG/DIN06/   37/   37
.E BHBM3 20190217 Z DH0512/TAIRG/DIN06/   29/-9999/   29
.E BHBM3 20190217 Z DH0512/PLIRG/DIN06/29.99/-9999/30.00
.E FRVM3 20190217 Z DH0524/TAIRP/DIN06/   31/   31
.E BLTM3 20190217 Z DH0524/TAIRP/DIN06/   31/   31
.E BLTM3 20190217 Z DH0524/PLIRP/DIN06/29.99/30.00
.E BLTM3 20190217 Z DH0524/USIRP/DIN06/    5/    4
.E BLTM3 20190217 Z DH0524/UDIRP/DIN06/  319/  320
.E BLTM3 20190217 Z DH0524/UGIRP/DIN06/    8/    6
.E BLTM3 20190217 Z DH0518/TAIRG/DIN06/   31/   31/   31
.E BLTM3 20190217 Z DH0518/PLIRG/DIN06/29.99/29.99/30.00
.E BLTM3 20190217 Z DH0518/USIRG/DIN06/    7/    5/    4
.E BLTM3 20190217 Z DH0518/UDIRG/DIN06/  322/  319/  320
.E BLTM3 20190217 Z DH0518/UGIRG/DIN06/   10/    8/    6
.E FRXM3 20190217 Z DH0518/TAIRG/DIN06/   32/   32/   32
.E BZBM3 20190217 Z DH0518/TAIRP/DIN06/   33/   32
.E BZBM3 20190217 Z DH0518/PLIRP/DIN06/29.96/29.96
.E BZBM3 20190217 Z DH0518/TWIRP/DIN06/   36/   36
.E BZBM3 20190217 Z DH0512/TAIRG/DIN06/   33/-9999/   32
.E BZBM3 20190217 Z DH0512/PLIRG/DIN06/29.96/-9999/29.96
.E BZBM3 20190217 Z DH0512/TWIRG/DIN06/   36/-9999/   36
.A NTKM3 20190217 Z DH0500/TAIRP    34/UGIRP    11/PLIRP 29.95/UDIRP   330/USIRP     8/TWIRP    38/WCIRP -9999
.E NTKM3 20190217 Z DH0512/TAIRG/DIN06/   34/-9999/   34
.E NTKM3 20190217 Z DH0512/PLIRG/DIN06/29.95/-9999/29.95
.E NTKM3 20190217 Z DH0512/USIRG/DIN06/    7/-9999/    8
.E NTKM3 20190217 Z DH0512/UDIRG/DIN06/  329/-9999/  323
.E NTKM3 20190217 Z DH0512/UGIRG/DIN06/   10/-9999/   12
.E NTKM3 20190217 Z DH0512/TWIRG/DIN06/   38/-9999/   38
.E NWPR1 20190217 Z DH0512/TAIRG/DIN06/   32/   32/   32
.E NWPR1 20190217 Z DH0512/PLIRG/DIN06/29.99/29.99/29.98
.E NWPR1 20190217 Z DH0512/USIRG/DIN06/    8/   10/   10
.E NWPR1 20190217 Z DH0512/UDIRG/DIN06/  341/  344/  338
.E NWPR1 20190217 Z DH0512/UGIRG/DIN06/   16/   15/   14
.E NWPR1 20190217 Z DH0512/WCIRG/DIN06/29370/29370/29350
.E NWPR1 20190217 Z DH0512/TWIRG/DIN06/   37/   37/   37
.E CPTR1 20190217 Z DH0524/TAIRP/DIN06/   31/   31
.E CPTR1 20190217 Z DH0524/PLIRP/DIN06/29.99/29.99
.E CPTR1 20190217 Z DH0524/USIRP/DIN06/   14/   14
.E CPTR1 20190217 Z DH0524/UDIRP/DIN06/  309/  315
.E CPTR1 20190217 Z DH0524/UGIRP/DIN06/   15/   19
.E CPTR1 20190217 Z DH0524/TWIRP/DIN06/   39/   39
.E CPTR1 20190217 Z DH0512/TAIRG/DIN06/   31/   31/   31
.E CPTR1 20190217 Z DH0512/PLIRG/DIN06/29.99/29.99/29.99
.E CPTR1 20190217 Z DH0512/USIRG/DIN06/   14/   12/   14
.E CPTR1 20190217 Z DH0512/UDIRG/DIN06/  306/  306/  309
.E CPTR1 20190217 Z DH0512/UGIRG/DIN06/   16/   15/   15
.E CPTR1 20190217 Z DH0512/TWIRG/DIN06/   39/   39/   39
.E PTCR1 20190217 Z DH0512/TAIRG/DIN06/   30/   30/   30
.E PTCR1 20190217 Z DH0512/PLIRG/DIN06/29.99/29.99/30.00
.E PTCR1 20190217 Z DH0512/USIRG/DIN06/    4/    5/    5
.E PTCR1 20190217 Z DH0512/UDIRG/DIN06/  343/  332/  337
.E PTCR1 20190217 Z DH0512/UGIRG/DIN06/   10/   10/    8
.E PVDR1 20190217 Z DH0454/TAIRG/DIN06/   31/   30/   30/   30/   30/   30
.E PVDR1 20190217 Z DH0454/PLIRG/DIN06/29.98/29.98/29.99/29.99/29.99/29.99
.E PVDR1 20190217 Z DH0454/USIRG/DIN06/    9/    8/    7/   11/   11/    9
.E PVDR1 20190217 Z DH0454/UDIRG/DIN06/  317/  318/  322/  319/  312/  312
.E PVDR1 20190217 Z DH0454/UGIRG/DIN06/   13/   13/   14/   15/   14/   13
.E FOXR1 20190217 Z DH0512/TAIRG/DIN06/   31/   31/   31
.E FOXR1 20190217 Z DH0512/PLIRG/DIN06/29.98/29.98/29.98
.E FOXR1 20190217 Z DH0512/USIRG/DIN06/   11/   11/    6
.E FOXR1 20190217 Z DH0512/UDIRG/DIN06/  353/    8/  357
.E FOXR1 20190217 Z DH0512/UGIRG/DIN06/   15/   15/   15
.E FOXR1 20190217 Z DH0512/TWIRG/DIN06/   38/   38/   38
.E QPTR1 20190217 Z DH0500/TAIRG/DIN06/   31/   31/   31/   31
.E QPTR1 20190217 Z DH0500/PLIRG/DIN06/29.99/30.00/30.00/30.00
.E QPTR1 20190217 Z DH0500/USIRG/DIN06/    7/    6/    8/    8
.E QPTR1 20190217 Z DH0500/UDIRG/DIN06/  318/  314/  306/  319
.E QPTR1 20190217 Z DH0500/UGIRG/DIN06/    9/   11/   11/   10
.E QPTR1 20190217 Z DH0500/WCIRG/DIN06/27110/27080/27060/27020
.E QPTR1 20190217 Z DH0500/TWIRG/DIN06/   39/   39/   39/   39
.E NLNC3 20190217 Z DH0518/TAIRG/DIN06/   29/   29
.E NLNC3 20190217 Z DH0518/PLIRG/DIN06/30.00/30.00
.E NLNC3 20190217 Z DH0518/USIRG/DIN06/    9/    9
.E NLNC3 20190217 Z DH0518/UDIRG/DIN06/  347/  348
.E NLNC3 20190217 Z DH0518/UGIRG/DIN06/   13/   13
.E NLNC3 20190217 Z DH0518/TWIRG/DIN06/   39/   39
.E NWHC3 20190217 Z DH0524/TAIRP/DIN06/   28/   28
.E NWHC3 20190217 Z DH0524/PLIRP/DIN06/30.06/30.06
.E NWHC3 20190217 Z DH0524/USIRP/DIN06/   12/   12
.E NWHC3 20190217 Z DH0524/UDIRP/DIN06/  356/  359
.E NWHC3 20190217 Z DH0524/UGIRP/DIN06/   15/   17
.E NWHC3 20190217 Z DH0524/TWIRP/DIN06/   38/   38
.E NWHC3 20190217 Z DH0518/TAIRG/DIN06/   28/   28
.E NWHC3 20190217 Z DH0518/PLIRG/DIN06/30.06/30.06
.E NWHC3 20190217 Z DH0518/USIRG/DIN06/   10/   12
.E NWHC3 20190217 Z DH0518/UDIRG/DIN06/  353/  356
.E NWHC3 20190217 Z DH0518/UGIRG/DIN06/   12/   15
.E NWHC3 20190217 Z DH0518/TWIRG/DIN06/   38/   38
.E BRHC3 20190217 Z DH0512/TAIRG/DIN06/   28/   28
.E BRHC3 20190217 Z DH0512/PLIRG/DIN06/30.05/30.05
.E BRHC3 20190217 Z DH0512/USIRG/DIN06/    6/    6
.E BRHC3 20190217 Z DH0512/UDIRG/DIN06/  348/  340
.E BRHC3 20190217 Z DH0512/UGIRG/DIN06/   11/   10
.E BRHC3 20190217 Z DH0512/TWIRG/DIN06/   36/   36
.E MTKN6 20190217 Z DH0512/TAIRG/DIN06/   32/-9999/   32
.E MTKN6 20190217 Z DH0512/PLIRG/DIN06/30.00/-9999/30.01
.E MTKN6 20190217 Z DH0512/TWIRG/DIN06/   38/-9999/   38
.E KPTN6 20190217 Z DH0524/PLIRP/DIN06/30.10/30.10
.E KPTN6 20190217 Z DH0524/TWIRP/DIN06/   34/   34
.E KPTN6 20190217 Z DH0512/PLIRG/DIN06/30.09/-9999/30.10
.E KPTN6 20190217 Z DH0512/TWIRG/DIN06/   34/-9999/   34
.E BATN6 20190217 Z DH0518/TAIRG/DIN06/   31/   31/   31
.E BATN6 20190217 Z DH0518/PLIRG/DIN06/30.07/30.07/30.07
.E BATN6 20190217 Z DH0518/TWIRG/DIN06/   38/   38/   38
.E TKPN6 20190217 Z DH0512/TAIRG/DIN06/   24/   24/   24
.E TKPN6 20190217 Z DH0512/PLIRG/DIN06/30.11/30.11/30.11
.E TKPN6 20190217 Z DH0512/USIRG/DIN06/    1/    0/    0
.E TKPN6 20190217 Z DH0512/UDIRG/DIN06/  280/  272/  260
.E TKPN6 20190217 Z DH0512/UGIRG/DIN06/    1/    2/    0
.E TKPN6 20190217 Z DH0512/TWIRG/DIN06/   33/   33/   33
.E BGNN6 20190217 Z DH0512/TAIRG/DIN06/   32/   32
.E BGNN6 20190217 Z DH0512/PLIRG/DIN06/30.07/30.07
.E BGNN6 20190217 Z DH0512/TWIRG/DIN06/   38/   38
.E MHRN6 20190217 Z DH0518/USIRG/DIN06/   14/   11/   14
.E MHRN6 20190217 Z DH0518/UDIRG/DIN06/  335/  337/  338
.E MHRN6 20190217 Z DH0518/UGIRG/DIN06/   17/   15/   16
.E ROBN4 20190217 Z DH0518/TAIRG/DIN06/   32/   31/   31
.E ROBN4 20190217 Z DH0518/PLIRG/DIN06/30.08/30.08/30.08
.E ROBN4 20190217 Z DH0518/USIRG/DIN06/   11/   10/   13
.E ROBN4 20190217 Z DH0518/UDIRG/DIN06/  346/  337/  338
.E ROBN4 20190217 Z DH0518/UGIRG/DIN06/   14/   15/   16
.E SDHN4 20190217 Z DH0524/TAIRP/DIN06/   32/   32
.E SDHN4 20190217 Z DH0524/PLIRP/DIN06/30.09/30.09
.E SDHN4 20190217 Z DH0524/USIRP/DIN06/   11/   13
.E SDHN4 20190217 Z DH0524/UDIRP/DIN06/  356/  358
.E SDHN4 20190217 Z DH0524/UGIRP/DIN06/   20/   20
.E SDHN4 20190217 Z DH0524/TWIRP/DIN06/   39/   39
.E SDHN4 20190217 Z DH0512/TAIRG/DIN06/   33/-9999/   32
.E SDHN4 20190217 Z DH0512/PLIRG/DIN06/30.09/-9999/30.09
.E SDHN4 20190217 Z DH0512/USIRG/DIN06/   15/-9999/   11
.E SDHN4 20190217 Z DH0512/UDIRG/DIN06/  347/-9999/  356
.E SDHN4 20190217 Z DH0512/UGIRG/DIN06/   20/-9999/   20
.E SDHN4 20190217 Z DH0512/TWIRG/DIN06/   39/-9999/   39
.E ACYN4 20190217 Z DH0512/TAIRG/DIN06/   34/-9999/   33
.E ACYN4 20190217 Z DH0512/PLIRG/DIN06/30.03/-9999/30.04
.E ACYN4 20190217 Z DH0512/TWIRG/DIN06/   39/-9999/   39
.E CMAN4 20190217 Z DH0518/TAIRG/DIN06/   35/   35
.E CMAN4 20190217 Z DH0518/PLIRG/DIN06/30.03/30.03
.E CMAN4 20190217 Z DH0518/USIRG/DIN06/    6/    6
.E CMAN4 20190217 Z DH0518/UDIRG/DIN06/   22/   20
.E CMAN4 20190217 Z DH0518/UGIRG/DIN06/    9/   12
.E CMAN4 20190217 Z DH0518/WCIRG/DIN06/25940/25910
.E CMAN4 20190217 Z DH0518/TWIRG/DIN06/   39/   39
.E SJSN4 20190217 Z DH0518/TAIRG/DIN06/   34/   34/   34
.E SJSN4 20190217 Z DH0518/PLIRG/DIN06/30.04/30.04/30.04
.E SJSN4 20190217 Z DH0518/USIRG/DIN06/   17/   16/   19
.E SJSN4 20190217 Z DH0518/UDIRG/DIN06/  359/    7/    8
.E SJSN4 20190217 Z DH0518/UGIRG/DIN06/   20/   19/   22
.E SJSN4 20190217 Z DH0518/TWIRG/DIN06/   38/   38/   38
.E BDRN4 20190217 Z DH0524/USIRP/DIN06/    6/    5
.E BDRN4 20190217 Z DH0524/UDIRP/DIN06/   17/   14
.E BDRN4 20190217 Z DH0524/UGIRP/DIN06/   10/   11
.E BDRN4 20190217 Z DH0512/TAIRG/DIN06/   31/   31/   31
.E BDRN4 20190217 Z DH0512/PLIRG/DIN06/30.06/30.05/30.06
.E BDRN4 20190217 Z DH0512/USIRG/DIN06/    4/-9999/    6
.E BDRN4 20190217 Z DH0512/UDIRG/DIN06/   10/-9999/   17
.E BDRN4 20190217 Z DH0512/UGIRG/DIN06/    7/-9999/   10
.E BDRN4 20190217 Z DH0512/TWIRG/DIN06/   38/   38/   38
.E MRCP1 20190217 Z DH0512/TAIRG/DIN06/   33/   33/   33
.E MRCP1 20190217 Z DH0512/PLIRG/DIN06/30.04/30.05/30.05
.E MRCP1 20190217 Z DH0512/TWIRG/DIN06/   40/   39/   39
.E PHBP1 20190217 Z DH0512/TAIRG/DIN06/   33/-9999/   33
.E PHBP1 20190217 Z DH0512/PLIRG/DIN06/30.04/-9999/30.04
.E PHBP1 20190217 Z DH0512/TWIRG/DIN06/   37/-9999/   37
.E BDSP1 20190217 Z DH0512/TAIRG/DIN06/   32/-9999/   32
.E BDSP1 20190217 Z DH0512/PLIRG/DIN06/30.06/-9999/30.06
.E BDSP1 20190217 Z DH0512/TWIRG/DIN06/   42/-9999/   39
.A NBLP1 20190217 Z DH0530/TAIRP    31/UGIRP    10/PLIRP 30.07/UDIRP    11/USIRP     6/TWIRP    39/WCIRP -9999
.E NBLP1 20190217 Z DH0518/TAIRG/DIN06/   31/   31/   31
.E NBLP1 20190217 Z DH0518/PLIRG/DIN06/30.07/30.07/30.07
.E NBLP1 20190217 Z DH0518/USIRG/DIN06/    6/    3/    6
.E NBLP1 20190217 Z DH0518/UDIRG/DIN06/   17/   20/   11
.E NBLP1 20190217 Z DH0518/UGIRG/DIN06/   11/    9/   10
.E NBLP1 20190217 Z DH0518/TWIRG/DIN06/   39/   39/   39
.A DELD1 20190217 Z DH0530/TAIRP    34/UGIRP    16/PLIRP 30.06/UDIRP     4/USIRP    13/TWIRP    35/WCIRP -9999
.E DELD1 20190217 Z DH0518/TAIRG/DIN06/   35/   35/   34
.E DELD1 20190217 Z DH0518/PLIRG/DIN06/30.06/30.06/30.06
.E DELD1 20190217 Z DH0518/USIRG/DIN06/   15/   15/   13
.E DELD1 20190217 Z DH0518/UDIRG/DIN06/   18/   19/    4
.E DELD1 20190217 Z DH0518/UGIRG/DIN06/   17/   17/   16
.E DELD1 20190217 Z DH0518/TWIRG/DIN06/   36/   35/   35
.E RDYD1 20190217 Z DH0512/TAIRG/DIN06/   34/   34/   34
.E RDYD1 20190217 Z DH0512/PLIRG/DIN06/30.05/30.04/30.04
.E RDYD1 20190217 Z DH0512/TWIRG/DIN06/   37/   37/   37
.E BRND1 20190217 Z DH0524/PLIRP/DIN06/30.04/30.04
.E LWSD1 20190217 Z DH0512/TAIRG/DIN06/   38/   38/   38
.E LWSD1 20190217 Z DH0512/PLIRG/DIN06/30.04/30.04/30.04
.E LWSD1 20190217 Z DH0512/USIRG/DIN06/   17/   18/   19
.E LWSD1 20190217 Z DH0512/UDIRG/DIN06/   14/   16/   16
.E LWSD1 20190217 Z DH0512/UGIRG/DIN06/   20/   20/   22
.E LWSD1 20190217 Z DH0512/WCIRG/DIN06/23680/23660/23640
.E LWSD1 20190217 Z DH0512/TWIRG/DIN06/   40/   40/   40
.E OCIM2 20190217 Z DH0512/TAIRG/DIN06/   37/   37/   37
.E OCIM2 20190217 Z DH0512/PLIRG/DIN06/30.03/30.04/30.04
.E OCIM2 20190217 Z DH0512/USIRG/DIN06/   11/   12/   11
.E OCIM2 20190217 Z DH0512/UDIRG/DIN06/    5/    6/    5
.E OCIM2 20190217 Z DH0512/UGIRG/DIN06/   13/   15/   14
.E OCIM2 20190217 Z DH0512/TWIRG/DIN06/   42/   42/   42
.E BISM2 20190217 Z DH0518/TAIRG/DIN06/   35/   35/   35
.E BISM2 20190217 Z DH0518/PLIRG/DIN06/30.05/30.05/30.05
.E BISM2 20190217 Z DH0518/USIRG/DIN06/    6/    6/    5
.E BISM2 20190217 Z DH0518/UDIRG/DIN06/  338/  341/  346
.E BISM2 20190217 Z DH0518/UGIRG/DIN06/    9/    8/    8
.E BISM2 20190217 Z DH0518/TWIRG/DIN06/   42/   42/   42
.E CAMM2 20190217 Z DH0512/TAIRG/DIN06/   37/   37/   37
.E CAMM2 20190217 Z DH0512/PLIRG/DIN06/30.04/30.04/30.05
.E CAMM2 20190217 Z DH0512/TWIRG/DIN06/   40/   40/   40
.E TCBM2 20190217 Z DH0524/TAIRP/DIN06/   35/   35
.E TCBM2 20190217 Z DH0524/PLIRP/DIN06/30.06/30.06
.E TCBM2 20190217 Z DH0524/USIRP/DIN06/    5/    4
.E TCBM2 20190217 Z DH0524/UDIRP/DIN06/   32/   35
.E TCBM2 20190217 Z DH0524/UGIRP/DIN06/   10/   10
.E TCBM2 20190217 Z DH0524/TWIRP/DIN06/   39/   39
.E TCBM2 20190217 Z DH0518/TAIRG/DIN06/   35/   35/   35
.E TCBM2 20190217 Z DH0518/PLIRG/DIN06/30.06/30.06/30.06
.E TCBM2 20190217 Z DH0518/USIRG/DIN06/    7/    5/    4
.E TCBM2 20190217 Z DH0518/UDIRG/DIN06/   26/   32/   35
.E TCBM2 20190217 Z DH0518/UGIRG/DIN06/   10/   10/   10
.E TCBM2 20190217 Z DH0518/TWIRG/DIN06/   39/   39/   39
.E CHCM2 20190217 Z DH0524/TAIRP/DIN06/   32/   32
.E CHCM2 20190217 Z DH0524/PLIRP/DIN06/30.06/30.07
.E CHCM2 20190217 Z DH0524/USIRP/DIN06/    3/    2
.E CHCM2 20190217 Z DH0524/UDIRP/DIN06/   10/  360
.E CHCM2 20190217 Z DH0524/UGIRP/DIN06/    4/    4
.E CHCM2 20190217 Z DH0524/TWIRP/DIN06/   39/   39
.E CHCM2 20190217 Z DH0512/TAIRG/DIN06/   32/   32/   32
.E CHCM2 20190217 Z DH0512/PLIRG/DIN06/30.06/30.07/30.06
.E CHCM2 20190217 Z DH0512/USIRG/DIN06/    3/    2/    3
.E CHCM2 20190217 Z DH0512/UDIRG/DIN06/    2/    2/   10
.E CHCM2 20190217 Z DH0512/UGIRG/DIN06/    5/    4/    4
.E CHCM2 20190217 Z DH0512/TWIRG/DIN06/   39/   39/   39
.E BLTM2 20190217 Z DH0512/TAIRG/DIN06/   36/   36/   36
.E BLTM2 20190217 Z DH0512/PLIRG/DIN06/30.05/30.04/30.04
.E BLTM2 20190217 Z DH0512/USIRG/DIN06/    8/    8/    7
.E BLTM2 20190217 Z DH0512/UDIRG/DIN06/   33/   33/   35
.E BLTM2 20190217 Z DH0512/UGIRG/DIN06/   10/   10/   10
.E BLTM2 20190217 Z DH0512/WCIRG/DIN06/ 4350/ 4360/ 4370
.E BLTM2 20190217 Z DH0512/TWIRG/DIN06/   39/   39/   39
.E FSKM2 20190217 Z DH0524/TAIRP/DIN06/   35/   35
.E FSKM2 20190217 Z DH0524/PLIRP/DIN06/30.05/30.05
.E FSKM2 20190217 Z DH0524/USIRP/DIN06/    9/    9
.E FSKM2 20190217 Z DH0524/UDIRP/DIN06/    4/    9
.E FSKM2 20190217 Z DH0524/UGIRP/DIN06/   11/   10
.E FSKM2 20190217 Z DH0518/TAIRG/DIN06/   36/   35
.E FSKM2 20190217 Z DH0518/PLIRG/DIN06/30.06/30.05
.E FSKM2 20190217 Z DH0518/USIRG/DIN06/    9/    9
.E FSKM2 20190217 Z DH0518/UDIRG/DIN06/    2/    4
.E FSKM2 20190217 Z DH0518/UGIRG/DIN06/   11/   11
.E FSNM2 20190217 Z DH0512/TAIRP/DIN06/   35/   35
.E FSNM2 20190217 Z DH0512/PLIRP/DIN06/30.03/30.03
.E CPVM2 20190217 Z DH0518/TAIRG/DIN06/   37/   37
.E APAM2 20190217 Z DH0524/TAIRP/DIN06/   35/   35
.E APAM2 20190217 Z DH0524/PLIRP/DIN06/30.04/30.04
.E APAM2 20190217 Z DH0512/TAIRG/DIN06/   36/-9999/   35
.E APAM2 20190217 Z DH0512/PLIRG/DIN06/30.04/-9999/30.04
.E COVM2 20190217 Z DH0518/TAIRG/DIN06/   38/   38
.E COVM2 20190217 Z DH0518/USIRG/DIN06/   10/   14
.E COVM2 20190217 Z DH0518/UDIRG/DIN06/    4/   15
.E COVM2 20190217 Z DH0518/UGIRG/DIN06/   16/   17
.E SLIM2 20190217 Z DH0524/TAIRP/DIN06/   36/   35
.E SLIM2 20190217 Z DH0524/PLIRP/DIN06/30.04/30.04
.E SLIM2 20190217 Z DH0524/USIRP/DIN06/    5/    4
.E SLIM2 20190217 Z DH0524/UDIRP/DIN06/  335/  325
.E SLIM2 20190217 Z DH0524/UGIRP/DIN06/    6/    7
.E SLIM2 20190217 Z DH0524/TWIRP/DIN06/   40/   40
.E SLIM2 20190217 Z DH0512/TAIRG/DIN06/   36/   36/   36
.E SLIM2 20190217 Z DH0512/PLIRG/DIN06/30.04/30.04/30.04
.E SLIM2 20190217 Z DH0512/USIRG/DIN06/    6/    5/    5
.E SLIM2 20190217 Z DH0512/UDIRG/DIN06/  333/  342/  335
.E SLIM2 20190217 Z DH0512/UGIRG/DIN06/    8/    7/    6
.E SLIM2 20190217 Z DH0512/TWIRG/DIN06/   40/   40/   40
.E PPTM2 20190217 Z DH0512/USIRP/DIN06/    9/    9
.E PPTM2 20190217 Z DH0512/UDIRP/DIN06/   17/   14
.E PPTM2 20190217 Z DH0512/UGIRP/DIN06/   11/   10
.E WASD2 20190217 Z DH0512/TAIRG/DIN06/   37/-9999/   37
.E WASD2 20190217 Z DH0512/PLIRG/DIN06/30.06/-9999/30.07
.E WASD2 20190217 Z DH0512/USIRG/DIN06/    6/-9999/    5
.E WASD2 20190217 Z DH0512/UDIRG/DIN06/    1/-9999/  352
.E WASD2 20190217 Z DH0512/UGIRG/DIN06/    9/-9999/    8
.E WASD2 20190217 Z DH0512/TWIRG/DIN06/   41/-9999/   41
.E WAHV2 20190217 Z DH0518/TAIRG/DIN06/   35/   35
.E WAHV2 20190217 Z DH0518/PLIRG/DIN06/30.01/30.01
.E WAHV2 20190217 Z DH0518/USIRG/DIN06/    5/    4
.E WAHV2 20190217 Z DH0518/UDIRG/DIN06/  345/  338
.E WAHV2 20190217 Z DH0518/UGIRG/DIN06/    6/    9
.E WAHV2 20190217 Z DH0518/TWIRG/DIN06/   46/   46
.E KPTV2 20190217 Z DH0512/USIRG/DIN06/    7/    6/    7
.E KPTV2 20190217 Z DH0512/UDIRG/DIN06/   18/   26/   18
.E KPTV2 20190217 Z DH0512/UGIRG/DIN06/   10/   10/    9
.E KPTV2 20190217 Z DH0512/TWIRG/DIN06/   44/   44/   44
.E RPLV2 20190217 Z DH0518/PLIRG/DIN06/30.04/30.05
.E RPLV2 20190217 Z DH0518/USIRG/DIN06/   21/   22
.E RPLV2 20190217 Z DH0518/UDIRG/DIN06/    5/   11
.E RPLV2 20190217 Z DH0518/UGIRG/DIN06/   24/   24
.E NCDV2 20190217 Z DH0512/TAIRG/DIN06/   33/   33/   33
.E NCDV2 20190217 Z DH0512/PLIRG/DIN06/30.04/30.04/30.04
.E NCDV2 20190217 Z DH0512/USIRG/DIN06/    2/    2/    2
.E NCDV2 20190217 Z DH0512/UDIRG/DIN06/  324/  359/    4
.E NCDV2 20190217 Z DH0512/UGIRG/DIN06/    3/    4/    3
.E NCDV2 20190217 Z DH0512/TWIRG/DIN06/   42/   41/   41
.E LWTV2 20190217 Z DH0512/TAIRG/DIN06/   38/   38/   38
.E LWTV2 20190217 Z DH0512/PLIRG/DIN06/30.04/30.05/30.04
.E LWTV2 20190217 Z DH0512/USIRG/DIN06/    8/    7/    7
.E LWTV2 20190217 Z DH0512/UDIRG/DIN06/    1/    3/    9
.E LWTV2 20190217 Z DH0512/UGIRG/DIN06/   11/   11/   10
.E LWTV2 20190217 Z DH0512/WCIRG/DIN06/ 6780/ 6750/ 6740
.E LWTV2 20190217 Z DH0512/TWIRG/DIN06/   41/   41/   41
.E YKRV2 20190217 Z DH0524/TAIRP/DIN06/   39/   39
.E YKRV2 20190217 Z DH0524/PLIRP/DIN06/30.04/30.04
.E YKRV2 20190217 Z DH0524/USIRP/DIN06/   15/   13
.E YKRV2 20190217 Z DH0524/UDIRP/DIN06/   17/   18
.E YKRV2 20190217 Z DH0524/UGIRP/DIN06/   17/   15
.E YKRV2 20190217 Z DH0518/TAIRG/DIN06/   39/   39
.E YKRV2 20190217 Z DH0518/PLIRG/DIN06/30.03/30.04
.E YKRV2 20190217 Z DH0518/USIRG/DIN06/   16/   15
.E YKRV2 20190217 Z DH0518/UDIRG/DIN06/   16/   17
.E YKRV2 20190217 Z DH0518/UGIRG/DIN06/   17/   17
.E YKTV2 20190217 Z DH0518/TAIRP/DIN06/   36/   36/   36
.E YKTV2 20190217 Z DH0518/PLIRP/DIN06/30.02/30.02/30.02
.E YKTV2 20190217 Z DH0518/USIRP/DIN06/    9/    9/    9
.E YKTV2 20190217 Z DH0518/UDIRP/DIN06/  358/    3/    2
.E YKTV2 20190217 Z DH0518/UGIRP/DIN06/   11/   11/   10
.E YKTV2 20190217 Z DH0518/TWIRP/DIN06/   44/   44/   44
.E YKTV2 20190217 Z DH0512/TAIRG/DIN06/   36/-9999/   36
.E YKTV2 20190217 Z DH0512/PLIRG/DIN06/30.01/-9999/30.02
.E YKTV2 20190217 Z DH0512/USIRG/DIN06/    9/-9999/    9
.E YKTV2 20190217 Z DH0512/UDIRG/DIN06/  357/-9999/    3
.E YKTV2 20190217 Z DH0512/UGIRG/DIN06/   12/-9999/   11
.E YKTV2 20190217 Z DH0512/WCIRG/DIN06/13940/-9999/14170
.E YKTV2 20190217 Z DH0512/TWIRG/DIN06/   44/-9999/   44
.E DOMV2 20190217 Z DH0512/TAIRG/DIN06/   38/   38/   38
.E DOMV2 20190217 Z DH0512/PLIRG/DIN06/30.02/30.02/30.03
.E DOMV2 20190217 Z DH0512/USIRG/DIN06/    1/    1/    2
.E DOMV2 20190217 Z DH0512/UDIRG/DIN06/  105/   60/   97
.E DOMV2 20190217 Z DH0512/UGIRG/DIN06/    3/    4/    4
.E CRYV2 20190217 Z DH0518/TAIRG/DIN06/   39/   39/   39
.E CRYV2 20190217 Z DH0518/PLIRG/DIN06/30.00/30.00/30.01
.E CRYV2 20190217 Z DH0518/USIRG/DIN06/   13/   12/   12
.E CRYV2 20190217 Z DH0518/UDIRG/DIN06/    1/  359/    0
.E CRYV2 20190217 Z DH0518/UGIRG/DIN06/   15/   15/   14
.E SWPV2 20190217 Z DH0512/PLIRG/DIN06/30.01/30.01/30.01
.E SWPV2 20190217 Z DH0512/WCIRG/DIN06/17370/17360/17310
.E SWPV2 20190217 Z DH0512/TWIRG/DIN06/   46/   46/   46
.E WDSV2 20190217 Z DH0512/TAIRG/DIN06/   38/   38/   38
.E WDSV2 20190217 Z DH0512/PLIRG/DIN06/30.00/30.00/30.00
.E WDSV2 20190217 Z DH0512/USIRG/DIN06/   10/   10/   11
.E WDSV2 20190217 Z DH0512/UDIRG/DIN06/  350/  349/  352
.E WDSV2 20190217 Z DH0512/UGIRG/DIN06/   12/   12/   13
.A CHYV2 20190217 Z DH0524/TAIRP    40/UGIRP    21/PLIRP 29.96/UDIRP     7/USIRP    18/TWIRP -9999/WCIRP -9999
.E CHYV2 20190217 Z DH0512/TAIRG/DIN06/   41/   40/   40
.E CHYV2 20190217 Z DH0512/PLIRG/DIN06/29.96/29.96/29.96
.E CHYV2 20190217 Z DH0512/USIRG/DIN06/   18/   18/   18
.E CHYV2 20190217 Z DH0512/UDIRG/DIN06/    6/    9/    7
.E CHYV2 20190217 Z DH0512/UGIRG/DIN06/   19/   21/   21
.E MNPV2 20190217 Z DH0512/TAIRG/DIN06/   42/   42
.E MNPV2 20190217 Z DH0512/PLIRG/DIN06/30.00/30.00
.E MNPV2 20190217 Z DH0512/USIRG/DIN06/    6/    5
.E MNPV2 20190217 Z DH0512/UDIRG/DIN06/   32/   28
.E MNPV2 20190217 Z DH0512/UGIRG/DIN06/   10/   10
.E MNPV2 20190217 Z DH0512/WCIRG/DIN06/16170/16090
.E MNPV2 20190217 Z DH0512/TWIRG/DIN06/   47/   47
.E DUKN7 20190217 Z DH0518/TAIRG/DIN06/   42/   42
.E DUKN7 20190217 Z DH0518/PLIRG/DIN06/29.97/29.97
.E DUKN7 20190217 Z DH0518/USIRG/DIN06/   15/   17
.E DUKN7 20190217 Z DH0518/UDIRG/DIN06/    9/   10
.E DUKN7 20190217 Z DH0518/UGIRG/DIN06/   20/   21
.E DUKN7 20190217 Z DH0518/TWIRG/DIN06/   46/   45
.E ORIN7 20190217 Z DH0512/TAIRG/DIN06/   42/   42
.E ORIN7 20190217 Z DH0512/PLIRG/DIN06/29.97/29.97
.E ORIN7 20190217 Z DH0512/USIRG/DIN06/   16/   12
.E ORIN7 20190217 Z DH0512/UDIRG/DIN06/  356/  357
.E ORIN7 20190217 Z DH0512/UGIRG/DIN06/   21/   21
.E ORIN7 20190217 Z DH0512/TWIRG/DIN06/   47/   47
.E HCGN7 20190217 Z DH0512/TAIRG/DIN06/   45/   45/   44
.E HCGN7 20190217 Z DH0512/PLIRG/DIN06/29.95/29.95/29.96
.E HCGN7 20190217 Z DH0512/USIRG/DIN06/   24/   25/   22
.E HCGN7 20190217 Z DH0512/UDIRG/DIN06/   14/    6/    7
.E HCGN7 20190217 Z DH0512/UGIRG/DIN06/   27/   28/   26
.E HCGN7 20190217 Z DH0512/TWIRG/DIN06/   55/   55/   55
.E BFTN7 20190217 Z DH0512/TAIRG/DIN06/   42/-9999/   42
.E BFTN7 20190217 Z DH0512/PLIRG/DIN06/29.99/-9999/29.99
.E BFTN7 20190217 Z DH0512/USIRG/DIN06/   11/-9999/   12
.E BFTN7 20190217 Z DH0512/UDIRG/DIN06/   24/-9999/   10
.E BFTN7 20190217 Z DH0512/UGIRG/DIN06/   16/-9999/   16
.E BFTN7 20190217 Z DH0512/TWIRG/DIN06/   55/-9999/   55
.E WLON7 20190217 Z DH0512/TAIRG/DIN06/   42/-9999/   42
.E WLON7 20190217 Z DH0512/PLIRG/DIN06/29.97/-9999/29.97
.E WLON7 20190217 Z DH0512/TWIRG/DIN06/   54/-9999/   54
.E JMPN7 20190217 Z DH0512/TAIRG/DIN06/   41/-9999/   42
.E JMPN7 20190217 Z DH0512/PLIRG/DIN06/29.98/-9999/29.97
.E JMPN7 20190217 Z DH0512/USIRG/DIN06/   13/-9999/   14
.E JMPN7 20190217 Z DH0512/UDIRG/DIN06/    7/-9999/   26
.E JMPN7 20190217 Z DH0512/UGIRG/DIN06/   16/-9999/   17
.E JMPN7 20190217 Z DH0512/TWIRG/DIN06/   54/-9999/   54
.E MROS1 20190217 Z DH0512/TAIRG/DIN06/   45/-9999/   45
.E MROS1 20190217 Z DH0512/PLIRG/DIN06/30.05/-9999/30.04
.E CHTS1 20190217 Z DH0512/TAIRG/DIN06/   53/-9999/   52
.E CHTS1 20190217 Z DH0512/PLIRG/DIN06/29.92/-9999/29.92
.E CHTS1 20190217 Z DH0512/USIRG/DIN06/    9/-9999/    8
.E CHTS1 20190217 Z DH0512/UDIRG/DIN06/   15/-9999/   23
.E CHTS1 20190217 Z DH0512/UGIRG/DIN06/   12/-9999/   11
.E CHTS1 20190217 Z DH0512/TWIRG/DIN06/   57/-9999/   57
.E FPKG1 20190217 Z DH0512/TAIRG/DIN06/   56/   56/   56
.E FPKG1 20190217 Z DH0512/PLIRG/DIN06/29.89/29.90/29.90
.E FPKG1 20190217 Z DH0512/USIRG/DIN06/   19/   19/   17
.E FPKG1 20190217 Z DH0512/UDIRG/DIN06/   82/   82/   80
.E FPKG1 20190217 Z DH0512/UGIRG/DIN06/   23/   24/   21
.E FPKG1 20190217 Z DH0512/TWIRG/DIN06/   56/   56/   56
.E FRDF1 20190217 Z DH0518/TAIRG/DIN06/   67/   67
.E FRDF1 20190217 Z DH0518/PLIRG/DIN06/29.90/29.90
.E FRDF1 20190217 Z DH0518/TWIRG/DIN06/   61/   61
.E MYPF1 20190217 Z DH0512/TAIRG/DIN06/   67/   67/   66
.E MYPF1 20190217 Z DH0512/PLIRG/DIN06/29.88/29.88/29.89
.E MYPF1 20190217 Z DH0512/USIRG/DIN06/    9/    9/    9
.E MYPF1 20190217 Z DH0512/UDIRG/DIN06/  236/  238/  236
.E MYPF1 20190217 Z DH0512/UGIRG/DIN06/   11/   11/   11
.E MYPF1 20190217 Z DH0512/WCIRG/DIN06/12810/12790/12770
.E MYPF1 20190217 Z DH0512/TWIRG/DIN06/   61/   61/   61
.E DMSF1 20190217 Z DH0518/WCIRG/DIN06/ 6790/ 6880
.E DMSF1 20190217 Z DH0518/TWIRG/DIN06/   62/   62
.E LTJF1 20190217 Z DH0524/TAIRP/DIN06/   67/   67
.E BLIF1 20190217 Z DH0518/TAIRG/DIN06/   67/   67
.E BLIF1 20190217 Z DH0518/PLIRG/DIN06/29.92/29.92
.E BLIF1 20190217 Z DH0518/USIRG/DIN06/    9/    7
.E BLIF1 20190217 Z DH0518/UDIRG/DIN06/  221/  218
.E BLIF1 20190217 Z DH0518/UGIRG/DIN06/   11/    9
.E RCYF1 20190217 Z DH0524/TWIRP/DIN06/   65/   65
.E RCYF1 20190217 Z DH0518/WCIRG/DIN06/  530/  530
.E RCYF1 20190217 Z DH0518/TWIRG/DIN06/   65/   65
.E TRDF1 20190217 Z DH0518/TAIRG/DIN06/   68/   68
.E TRDF1 20190217 Z DH0518/PLIRG/DIN06/29.96/29.96
.E TRDF1 20190217 Z DH0518/USIRG/DIN06/    6/    5
.E TRDF1 20190217 Z DH0518/UDIRG/DIN06/  227/  227
.E TRDF1 20190217 Z DH0518/UGIRG/DIN06/    6/    7
.E TRDF1 20190217 Z DH0518/TWIRG/DIN06/   65/   65
.E LKWF1 20190217 Z DH0512/TAIRG/DIN06/   72/-9999/   71
.E LKWF1 20190217 Z DH0512/PLIRG/DIN06/29.99/-9999/29.99
.E LKWF1 20190217 Z DH0512/USIRG/DIN06/    4/-9999/    4
.E LKWF1 20190217 Z DH0512/UDIRG/DIN06/  262/-9999/  259
.E LKWF1 20190217 Z DH0512/UGIRG/DIN06/    6/-9999/    5
.E LKWF1 20190217 Z DH0512/TWIRG/DIN06/   76/-9999/   76
.E PEGF1 20190217 Z DH0512/TAIRG/DIN06/   73/   73/   73
.E PEGF1 20190217 Z DH0512/PLIRG/DIN06/29.96/29.96/29.96
.E PEGF1 20190217 Z DH0512/USIRG/DIN06/    2/    2/    3
.E PEGF1 20190217 Z DH0512/UDIRG/DIN06/  185/  179/  181
.E PEGF1 20190217 Z DH0512/UGIRG/DIN06/    3/    3/    3
.E PEGF1 20190217 Z DH0512/TWIRG/DIN06/   87/   86/   86
.E VAKF1 20190217 Z DH0512/TAIRG/DIN06/   74/   74/   74
.E VAKF1 20190217 Z DH0512/PLIRG/DIN06/29.94/29.94/29.94
.E VAKF1 20190217 Z DH0512/USIRG/DIN06/    2/    3/    2
.E VAKF1 20190217 Z DH0512/UDIRG/DIN06/  205/  203/  199
.E VAKF1 20190217 Z DH0512/UGIRG/DIN06/    3/    3/    3
.E VAKF1 20190217 Z DH0512/TWIRG/DIN06/   76/   76/   75
.E VCAF1 20190217 Z DH0518/TAIRG/DIN06/   75/   75
.E VCAF1 20190217 Z DH0518/PLIRG/DIN06/29.95/29.95
.E VCAF1 20190217 Z DH0518/TWIRG/DIN06/   76/   76
.E KYWF1 20190217 Z DH0518/USIRG/DIN06/    6/    6/    6
.E KYWF1 20190217 Z DH0518/UDIRG/DIN06/  124/  130/  131
.E KYWF1 20190217 Z DH0518/UGIRG/DIN06/    9/    9/    9
.E BARA9 20190217 Z DH0512/TAIRG/DIN06/   77/   77/   77
.E BARA9 20190217 Z DH0512/PLIRG/DIN06/30.02/30.02/30.01
.E BARA9 20190217 Z DH0512/TWIRG/DIN06/   80/   80/   80



USA.gov is the U.S. government's official web portal to all federal, state and local government web resources and services.